Time;durP1;ratioP1;P1;durP2;ratioP2;P2;SDS_P1;SDS_P2;PMS_P1;PMS_P2;Temp;Humidity;BMP_temperature;BMP_pressure;BME280_temperature;BME280_humidity;BME280_pressure;Samples;Min_cycle;Max_cycle;Signal;HPM_P1;HPM_P2
2021/01/01 00:03:28;;;;;;;19.80;17.65;;;;;;;4.60;81.46;98965.22;10335427;28;20058;-67
2021/01/01 00:08:29;;;;;;;15.77;13.95;;;;;;;4.63;81.16;98964.16;10337947;28;20053;-67
2021/01/01 00:13:31;;;;;;;17.35;15.57;;;;;;;4.70;80.62;98967.97;10347410;28;20175;-67
2021/01/01 00:18:32;;;;;;;19.45;17.42;;;;;;;4.80;80.49;98966.31;10342178;28;20491;-67
2021/01/01 00:23:34;;;;;;;21.25;17.17;;;;;;;4.83;78.62;98979.28;10358924;28;20053;-67
2021/01/01 00:28:35;;;;;;;21.77;18.75;;;;;;;4.70;79.53;98978.53;10349903;28;20051;-68
2021/01/01 00:33:36;;;;;;;23.75;20.58;;;;;;;4.66;79.69;98982.38;10349364;28;20058;-67
2021/01/01 00:38:38;;;;;;;17.70;15.80;;;;;;;4.76;79.43;98980.72;10350237;28;20116;-67
2021/01/01 00:43:41;;;;;;;19.38;16.45;;;;;;;4.76;79.63;98986.00;10347554;28;20046;-68
2021/01/01 00:48:42;;;;;;;17.23;13.95;;;;;;;4.72;79.41;98982.75;10350807;28;20050;-68
2021/01/01 00:53:44;;;;;;;17.35;14.25;;;;;;;4.68;80.12;98985.72;10346076;28;20046;-68
2021/01/01 00:58:45;;;;;;;16.80;15.10;;;;;;;4.54;79.76;98971.81;10351971;28;20053;-67
2021/01/01 01:03:46;;;;;;;18.75;16.02;;;;;;;4.68;80.28;98969.91;10342994;28;20059;-67
2021/01/01 01:08:48;;;;;;;18.55;16.55;;;;;;;4.87;79.55;98986.00;10337844;28;20100;-67
2021/01/01 01:13:55;;;;;;;18.60;15.23;;;;;;;4.88;78.87;98998.22;10347823;28;20129;-66
2021/01/01 01:18:57;;;;;;;17.13;14.93;;;;;;;4.88;79.21;98992.97;10307297;23;20057;-71
2021/01/01 01:23:59;;;;;;;16.48;14.00;;;;;;;4.76;78.95;99000.00;10350028;28;20061;-72
2021/01/01 01:29:00;;;;;;;14.45;12.88;;;;;;;4.79;79.36;98988.41;10348620;28;20046;-70
2021/01/01 01:34:01;;;;;;;15.05;13.32;;;;;;;4.73;78.73;99004.69;10340103;28;20038;-72
2021/01/01 01:39:03;;;;;;;15.05;12.23;;;;;;;4.56;80.04;99001.53;10345830;28;20416;-72
2021/01/01 01:44:05;;;;;;;12.73;11.38;;;;;;;4.67;78.95;98999.84;10350267;28;20129;-72
2021/01/01 01:49:10;;;;;;;14.88;12.80;;;;;;;4.79;78.73;99004.22;10349179;28;20053;-71
2021/01/01 01:54:12;;;;;;;13.50;11.63;;;;;;;4.87;78.92;99012.38;10349303;28;20235;-72
2021/01/01 01:59:18;;;;;;;14.85;12.63;;;;;;;4.73;78.63;99013.44;10349082;28;20111;-70
2021/01/01 02:04:19;;;;;;;12.98;10.57;;;;;;;4.78;79.34;99013.06;10345236;28;20045;-70
2021/01/01 02:09:20;;;;;;;12.27;9.40;;;;;;;4.65;79.13;99022.88;10348602;28;20054;-70
2021/01/01 02:14:22;;;;;;;11.85;9.35;;;;;;;4.65;78.94;99023.69;10349244;28;20088;-71
2021/01/01 02:19:23;;;;;;;12.10;10.25;;;;;;;4.69;79.12;99026.97;10338509;28;20125;-71
2021/01/01 02:24:26;;;;;;;10.88;9.50;;;;;;;4.53;79.96;99032.53;10342966;28;20046;-70
2021/01/01 02:29:27;;;;;;;11.88;10.02;;;;;;;4.71;79.90;99032.94;10347558;28;20590;-69
2021/01/01 02:34:28;;;;;;;11.10;9.90;;;;;;;4.66;78.74;99035.09;10351649;28;20097;-68
2021/01/01 02:39:29;;;;;;;11.55;9.48;;;;;;;4.74;77.91;99027.44;10344240;28;20068;-71
2021/01/01 02:44:31;;;;;;;10.57;9.55;;;;;;;4.65;78.45;99038.69;10339129;28;20101;-70
2021/01/01 02:49:32;;;;;;;10.77;9.55;;;;;;;4.60;79.04;99039.84;10340933;28;20049;-72
2021/01/01 02:54:34;;;;;;;10.15;8.38;;;;;;;4.68;79.09;99038.44;10347361;28;20046;-71
2021/01/01 02:59:35;;;;;;;13.13;10.60;;;;;;;4.73;78.78;99044.22;10362413;28;20054;-71
2021/01/01 03:04:36;;;;;;;10.05;8.80;;;;;;;4.72;77.83;99047.81;10342686;28;20408;-71
2021/01/01 03:09:38;;;;;;;11.18;9.18;;;;;;;4.72;77.83;99045.19;10346068;28;20057;-71
2021/01/01 03:14:39;;;;;;;12.73;9.50;;;;;;;4.56;78.03;99051.63;10343904;28;20053;-72
2021/01/01 03:19:40;;;;;;;12.38;10.38;;;;;;;4.62;78.35;99057.38;10339427;28;20061;-71
2021/01/01 03:24:41;;;;;;;12.43;10.45;;;;;;;4.56;78.32;99056.03;10337971;28;20502;-70
2021/01/01 03:29:43;;;;;;;12.05;10.38;;;;;;;4.50;79.32;99062.59;10340535;28;20045;-71
2021/01/01 03:34:44;;;;;;;11.98;9.50;;;;;;;4.49;79.34;99060.06;10339441;28;20527;-71
2021/01/01 03:39:45;;;;;;;16.55;12.98;;;;;;;4.53;79.22;99062.34;10338047;28;20500;-71
2021/01/01 03:44:46;;;;;;;12.07;10.30;;;;;;;4.49;78.89;99058.28;10337403;28;20120;-72
2021/01/01 03:49:48;;;;;;;10.55;9.18;;;;;;;4.51;79.50;99064.28;10349513;28;20293;-71
2021/01/01 03:54:49;;;;;;;11.50;9.35;;;;;;;4.52;79.12;99065.97;10337173;28;21111;-71
2021/01/01 03:59:50;;;;;;;30.25;20.90;;;;;;;4.36;79.66;99060.16;10343133;28;20054;-72
2021/01/01 04:04:51;;;;;;;11.10;9.73;;;;;;;4.40;80.30;99072.16;10379858;28;20121;-72
2021/01/01 04:09:53;;;;;;;11.95;9.43;;;;;;;4.31;80.28;99065.75;10369158;28;20057;-74
2021/01/01 04:14:54;;;;;;;13.10;10.50;;;;;;;4.46;80.48;99074.31;10381312;28;20050;-73
2021/01/01 04:19:55;;;;;;;11.45;10.20;;;;;;;4.52;79.79;99073.00;10359002;28;20294;-71
2021/01/01 04:24:56;;;;;;;16.33;13.68;;;;;;;4.45;80.15;99069.16;10357943;28;20412;-71
2021/01/01 04:29:58;;;;;;;12.93;11.23;;;;;;;4.52;79.70;99076.50;10355433;28;20033;-72
2021/01/01 04:34:59;;;;;;;12.50;10.88;;;;;;;4.54;79.88;99079.84;10352714;28;20480;-71
2021/01/01 04:40:00;;;;;;;14.32;11.93;;;;;;;4.58;80.42;99081.31;10345242;28;20144;-71
2021/01/01 04:45:04;;;;;;;14.27;11.30;;;;;;;4.59;80.00;99077.75;10309517;28;20074;-71
2021/01/01 04:50:06;;;;;;;12.20;10.65;;;;;;;4.29;80.39;99091.34;10304653;28;20131;-71
2021/01/01 04:55:08;;;;;;;13.27;10.23;;;;;;;4.25;81.19;99089.91;10305576;28;20043;-71
2021/01/01 05:00:10;;;;;;;14.45;11.45;;;;;;;4.36;81.14;99086.50;10321877;28;20050;-71
2021/01/01 05:05:11;;;;;;;15.52;12.02;;;;;;;4.39;81.10;99097.63;10343461;28;20049;-71
2021/01/01 05:10:12;;;;;;;13.82;12.25;;;;;;;4.45;80.94;99093.72;10346216;28;20046;-71
2021/01/01 05:15:15;;;;;;;15.90;12.70;;;;;;;4.38;81.10;99089.84;10341655;28;20049;-71
2021/01/01 05:20:16;;;;;;;15.98;12.90;;;;;;;4.35;81.79;99100.63;10333678;28;20531;-71
2021/01/01 05:25:18;;;;;;;15.52;12.85;;;;;;;4.38;81.99;99100.38;10344125;28;20626;-71
2021/01/01 05:30:29;;;;;;;15.95;14.02;;;;;;;4.40;81.38;99103.78;10347688;28;20480;-71
2021/01/01 05:35:31;;;;;;;16.08;13.65;;;;;;;4.50;80.73;99107.38;10333209;28;20062;-71
2021/01/01 05:40:32;;;;;;;14.77;11.90;;;;;;;4.49;80.52;99107.50;10344133;28;20116;-71
2021/01/01 05:45:33;;;;;;;13.65;12.02;;;;;;;4.57;80.66;99107.78;10334455;28;20057;-71
2021/01/01 05:50:36;;;;;;;11.23;9.98;;;;;;;4.51;80.62;99116.97;10363782;28;20076;-71
2021/01/01 05:55:37;;;;;;;12.25;10.95;;;;;;;4.59;81.29;99125.19;10344552;28;20515;-71
2021/01/01 06:00:39;;;;;;;12.90;11.43;;;;;;;4.75;80.79;99135.41;10344404;28;20042;-71
2021/01/01 06:06:04;;;;;;;13.38;11.57;;;;;;;4.69;80.07;99140.31;10341062;28;20137;-71
2021/01/01 06:11:06;;;;;;;13.43;11.07;;;;;;;4.55;79.99;99142.16;10341417;28;20306;-71
2021/01/01 06:16:09;;;;;;;12.40;10.32;;;;;;;4.58;79.99;99149.84;10344148;28;20585;-71
2021/01/01 06:21:11;;;;;;;13.05;10.98;;;;;;;4.49;80.75;99147.88;10343010;28;20049;-72
2021/01/01 06:26:12;;;;;;;12.48;11.13;;;;;;;4.68;79.50;99159.72;10337460;28;20053;-71
2021/01/01 06:31:14;;;;;;;11.45;10.23;;;;;;;4.70;79.66;99163.06;10340033;28;20045;-72
2021/01/01 06:36:37;;;;;;;15.15;12.35;;;;;;;4.77;79.42;99174.84;10336540;28;20089;-71
2021/01/01 06:41:46;;;;;;;13.82;12.27;;;;;;;4.64;79.48;99189.88;10340727;28;20057;-71
2021/01/01 06:46:48;;;;;;;16.10;13.38;;;;;;;4.47;80.40;99186.66;10341135;28;20045;-71
2021/01/01 06:52:08;;;;;;;16.20;13.73;;;;;;;4.70;79.90;99205.25;10358489;28;20145;-71
2021/01/01 06:57:09;;;;;;;19.30;15.55;;;;;;;4.70;79.83;99205.25;10358792;28;20050;-72
2021/01/01 07:02:20;;;;;;;20.00;15.05;;;;;;;4.69;79.67;99203.59;10342049;28;20062;-71
2021/01/01 07:07:40;;;;;;;17.48;14.32;;;;;;;4.80;79.55;99216.81;10364563;28;20072;-72
2021/01/01 07:12:41;;;;;;;16.60;13.95;;;;;;;4.79;79.27;99212.50;10376525;28;20421;-74
2021/01/01 07:17:47;;;;;;;17.52;15.43;;;;;;;4.88;78.97;99217.09;10353601;28;20046;-71
2021/01/01 07:22:55;;;;;;;16.05;11.75;;;;;;;4.83;78.03;99223.66;10299878;23;20193;-70
2021/01/01 07:27:58;;;;;;;15.00;12.35;;;;;;;4.88;78.33;99235.56;10290407;28;20062;-75
2021/01/01 07:32:59;;;;;;;14.82;12.18;;;;;;;4.81;78.38;99233.50;10334686;28;20050;-72
2021/01/01 07:38:03;;;;;;;15.70;12.73;;;;;;;4.88;78.63;99246.09;10297245;28;20460;-71
2021/01/01 07:43:09;;;;;;;16.08;12.40;;;;;;;4.96;78.59;99246.38;10293412;28;20105;-70
2021/01/01 07:48:14;;;;;;;15.52;12.25;;;;;;;5.01;78.01;99255.75;10291893;28;20228;-70
2021/01/01 07:53:16;;;;;;;14.00;12.50;;;;;;;5.02;77.94;99262.72;10308163;28;20066;-73
2021/01/01 07:58:18;;;;;;;15.65;12.50;;;;;;;5.09;77.67;99263.97;10284418;28;20046;-72
2021/01/01 08:03:21;;;;;;;13.80;11.45;;;;;;;5.20;77.87;99269.28;10295853;28;20046;-70
2021/01/01 08:08:24;;;;;;;16.80;12.32;;;;;;;5.21;77.40;99262.19;10274776;28;20078;-69
2021/01/01 08:13:27;;;;;;;15.73;12.43;;;;;;;5.16;77.30;99278.38;10299751;28;20054;-72
2021/01/01 08:18:28;;;;;;;13.10;10.60;;;;;;;5.23;77.28;99276.13;10299145;28;20050;-71
2021/01/01 08:23:58;;;;;;;12.23;10.50;;;;;;;5.26;76.42;99275.91;10294895;28;20054;-70
2021/01/01 08:29:00;;;;;;;12.40;10.05;;;;;;;5.25;75.76;99282.97;10297519;28;20456;-71
2021/01/01 08:34:03;;;;;;;12.55;11.25;;;;;;;5.22;76.06;99280.53;10311481;28;20058;-74
2021/01/01 08:39:11;;;;;;;14.27;12.75;;;;;;;5.32;76.70;99289.47;10328805;28;20042;-76
2021/01/01 08:44:14;;;;;;;13.00;10.68;;;;;;;5.44;76.37;99289.53;10327026;28;20112;-74
2021/01/01 08:49:20;;;;;;;12.60;10.52;;;;;;;5.57;75.82;99284.16;10313578;28;20473;-71
2021/01/01 08:54:23;;;;;;;14.00;12.02;;;;;;;5.60;75.17;99300.63;10299358;28;20065;-70
2021/01/01 08:59:25;;;;;;;14.65;12.07;;;;;;;5.65;75.49;99311.66;10296227;28;20050;-70
2021/01/01 09:04:28;;;;;;;14.50;11.73;;;;;;;5.51;75.37;99317.16;10301202;28;20367;-71
2021/01/01 09:09:32;;;;;;;14.35;11.32;;;;;;;5.36;76.29;99313.00;10302665;28;20070;-70
2021/01/01 09:14:51;;;;;;;14.27;11.20;;;;;;;5.31;76.21;99322.13;10294251;28;20062;-75
2021/01/01 09:19:59;;;;;;;13.65;11.32;;;;;;;5.49;75.76;99326.97;10321678;28;20061;-76
2021/01/01 09:25:19;;;;;;;15.00;11.48;;;;;;;5.94;73.67;99326.28;10300565;28;20193;-73
2021/01/01 09:30:32;;;;;;;12.77;10.07;;;;;;;5.63;75.29;99337.34;10304011;28;20053;-75
2021/01/01 09:35:34;;;;;;;11.07;8.85;;;;;;;5.40;75.31;99340.84;10317585;28;20045;-78
2021/01/01 09:40:36;;;;;;;10.25;9.15;;;;;;;5.43;76.04;99343.25;10319224;28;20045;-70
2021/01/01 09:45:38;;;;;;;11.63;9.32;;;;;;;5.70;75.37;99352.75;10298864;28;20058;-70
2021/01/01 09:50:40;;;;;;;11.00;9.90;;;;;;;5.61;74.25;99354.25;10325373;28;20062;-72
2021/01/01 09:55:41;;;;;;;11.07;9.40;;;;;;;5.71;75.04;99365.81;10332927;28;20137;-71
2021/01/01 10:00:42;;;;;;;13.82;11.27;;;;;;;5.68;74.41;99362.59;10297608;28;20069;-71
2021/01/01 10:05:47;;;;;;;16.50;13.15;;;;;;;5.55;75.14;99363.47;10295609;28;20097;-73
2021/01/01 10:10:48;;;;;;;14.63;12.85;;;;;;;5.53;76.54;99370.66;10301733;28;20045;-72
2021/01/01 10:15:50;;;;;;;16.05;13.55;;;;;;;5.53;75.54;99378.59;10298203;28;20081;-71
2021/01/01 10:20:51;;;;;;;14.90;12.50;;;;;;;5.29;75.92;99378.59;10296537;28;20264;-74
2021/01/01 10:25:53;;;;;;;13.75;12.18;;;;;;;5.20;75.88;99384.53;10293401;28;20079;-75
2021/01/01 10:30:55;;;;;;;24.60;17.92;;;;;;;5.20;77.09;99380.09;10291344;28;20050;-72
2021/01/01 10:35:58;;;;;;;16.17;13.43;;;;;;;5.28;76.48;99385.69;10286938;28;20248;-74
2021/01/01 10:41:02;;;;;;;12.40;9.68;;;;;;;5.23;74.72;99386.94;10319992;28;20048;-72
2021/01/01 10:46:04;;;;;;;11.23;9.97;;;;;;;5.10;75.34;99381.69;10290959;28;20109;-71
2021/01/01 10:51:05;;;;;;;12.02;9.98;;;;;;;5.17;75.66;99374.19;10291803;28;20057;-71
2021/01/01 10:56:06;;;;;;;12.50;10.45;;;;;;;5.15;75.55;99374.31;10293927;28;20049;-71
2021/01/01 11:01:08;;;;;;;13.23;11.07;;;;;;;5.12;76.07;99374.53;10293583;28;20057;-71
2021/01/01 11:06:09;;;;;;;12.32;10.70;;;;;;;5.20;75.50;99379.25;10294436;28;20521;-74
2021/01/01 11:11:13;;;;;;;11.57;10.07;;;;;;;5.20;75.91;99385.38;10288323;28;20096;-72
2021/01/01 12:25:39;;;;;;;7.32;6.63;;;;;;;5.55;73.75;99366.09;10327074;28;20059;-77
2021/01/01 12:30:42;;;;;;;7.18;6.47;;;;;;;5.58;73.70;99375.59;10305060;28;20065;-79
2021/01/01 12:35:43;;;;;;;6.78;6.05;;;;;;;5.58;73.20;99365.03;10324958;28;20550;-74
2021/01/01 12:40:45;;;;;;;7.38;6.60;;;;;;;5.63;72.71;99374.31;10319249;28;20050;-72
2021/01/01 12:45:46;;;;;;;8.10;7.40;;;;;;;5.55;72.76;99373.19;10323766;28;20065;-73
2021/01/01 12:50:55;;;;;;;6.72;5.68;;;;;;;5.57;72.80;99380.06;10309632;28;20046;-75
2021/01/01 12:55:56;;;;;;;59.58;53.50;;;;;;;5.51;73.15;99377.88;10301942;28;20576;-72
2021/01/01 13:00:58;;;;;;;9.20;8.30;;;;;;;5.54;73.23;99385.56;10282054;28;20070;-70
2021/01/01 13:06:00;;;;;;;6.75;6.07;;;;;;;5.58;73.29;99388.81;10293973;28;20101;-73
2021/01/01 13:11:02;;;;;;;12.00;9.35;;;;;;;5.61;73.31;99392.06;10293554;28;20050;-73
2021/01/01 13:16:04;;;;;;;9.90;8.52;;;;;;;5.65;72.82;99393.53;10295421;28;20417;-73
2021/01/01 13:21:07;;;;;;;7.18;6.50;;;;;;;5.60;73.69;99385.13;10305156;23;20058;-65
2021/01/01 13:26:08;;;;;;;6.55;5.95;;;;;;;5.06;74.18;99385.50;10317927;28;20475;-65
2021/01/01 13:31:09;;;;;;;6.63;5.93;;;;;;;5.40;74.13;99398.91;10318784;28;20049;-66
2021/01/01 13:36:20;;;;;;;7.22;6.53;;;;;;;5.61;73.36;99407.91;10322498;28;20476;-66
2021/01/01 13:41:21;;;;;;;5.68;5.18;;;;;;;5.72;72.94;99419.47;10320007;28;20049;-66
2021/01/01 13:46:29;;;;;;;6.93;6.22;;;;;;;5.75;71.89;99425.38;10316631;28;20620;-67
2021/01/01 13:51:37;;;;;;;7.22;6.53;;;;;;;5.76;71.50;99431.50;10313696;28;20060;-66
2021/01/01 13:56:38;;;;;;;6.10;5.53;;;;;;;5.81;71.26;99437.28;10318660;28;20045;-66
2021/01/01 14:01:40;;;;;;;6.15;5.55;;;;;;;5.71;70.46;99429.19;10315744;28;20524;-67
2021/01/01 14:06:41;;;;;;;6.15;5.65;;;;;;;5.83;70.64;99445.94;10311941;28;20060;-66
2021/01/01 14:11:47;;;;;;;7.13;6.53;;;;;;;5.83;70.72;99448.59;10299904;28;20058;-66
2021/01/01 14:16:53;;;;;;;6.35;5.68;;;;;;;5.80;70.66;99454.09;10316264;28;20068;-67
2021/01/01 14:21:54;;;;;;;6.82;6.13;;;;;;;5.77;70.54;99459.59;10315687;28;20050;-67
2021/01/01 14:26:56;;;;;;;6.53;5.90;;;;;;;5.70;70.32;99459.19;10323901;28;20057;-67
2021/01/01 14:31:58;;;;;;;7.50;6.80;;;;;;;5.72;70.95;99472.28;10311966;28;20750;-66
2021/01/01 14:37:00;;;;;;;6.75;6.13;;;;;;;5.69;70.92;99473.38;10316942;28;20057;-67
2021/01/01 14:42:02;;;;;;;6.85;5.90;;;;;;;5.65;71.19;99478.00;10316691;28;20511;-68
2021/01/01 14:47:03;;;;;;;6.78;5.90;;;;;;;5.64;71.05;99476.34;10320063;28;20057;-67
2021/01/01 14:52:06;;;;;;;8.10;7.30;;;;;;;5.68;71.40;99481.41;10264907;28;20523;-68
2021/01/01 14:57:12;;;;;;;7.43;6.72;;;;;;;5.69;72.03;99483.94;10266912;28;20054;-67
2021/01/01 15:02:13;;;;;;;7.20;6.50;;;;;;;5.68;72.10;99482.25;10249912;28;21201;-67
2021/01/01 15:07:14;;;;;;;6.78;6.18;;;;;;;5.66;71.17;99490.28;10311252;28;20064;-68
2021/01/01 15:12:18;;;;;;;7.43;6.68;;;;;;;5.55;71.83;99484.06;10315174;28;20406;-66
2021/01/01 15:17:21;;;;;;;7.13;6.43;;;;;;;5.60;72.30;99490.72;10304614;28;20087;-66
2021/01/01 15:22:24;;;;;;;8.43;7.15;;;;;;;5.60;71.56;99492.50;10317320;28;20129;-68
2021/01/01 15:27:25;;;;;;;7.68;6.97;;;;;;;5.61;71.33;99492.38;10311590;28;20062;-65
2021/01/01 15:32:26;;;;;;;7.70;6.90;;;;;;;5.51;71.54;99485.25;10315274;28;20053;-66
2021/01/01 15:37:28;;;;;;;8.10;7.30;;;;;;;5.55;71.92;99498.09;10320161;28;20058;-68
2021/01/01 15:42:30;;;;;;;8.73;7.93;;;;;;;5.53;71.43;99497.38;10304419;28;20069;-66
2021/01/01 15:47:33;;;;;;;9.60;8.60;;;;;;;5.34;71.17;99467.97;10303850;28;20051;-66
2021/01/01 15:52:35;;;;;;;9.52;8.20;;;;;;;5.57;71.60;99517.34;10310288;28;20518;-65
2021/01/01 15:57:36;;;;;;;8.73;7.82;;;;;;;5.59;71.81;99522.50;10309418;28;20319;-70
2021/01/01 16:02:37;;;;;;;11.20;9.88;;;;;;;5.57;71.95;99521.75;10301280;28;20054;-67
2021/01/01 16:07:39;;;;;;;9.65;8.70;;;;;;;5.55;71.55;99527.16;10283480;28;20159;-67
2021/01/01 16:12:40;;;;;;;10.25;9.25;;;;;;;5.53;71.70;99526.44;10293848;28;20042;-67
2021/01/01 16:17:42;;;;;;;9.52;8.57;;;;;;;5.53;72.24;99530.88;10290158;28;20046;-65
2021/01/01 16:22:43;;;;;;;9.55;8.65;;;;;;;5.48;72.18;99518.00;10309954;28;20068;-65
2021/01/01 16:27:46;;;;;;;9.80;8.80;;;;;;;5.50;71.76;99531.94;10312069;28;20056;-66
2021/01/01 16:32:47;;;;;;;10.10;9.10;;;;;;;5.54;70.81;99533.41;10319323;28;20054;-67
2021/01/01 16:37:49;;;;;;;10.82;9.77;;;;;;;5.57;70.98;99537.59;10322742;28;20340;-67
2021/01/01 16:42:54;;;;;;;11.55;10.35;;;;;;;5.53;70.98;99542.28;10313744;28;20054;-66
2021/01/01 16:47:56;;;;;;;11.77;9.68;;;;;;;5.53;70.50;99537.00;10304419;28;20054;-66
2021/01/01 16:52:59;;;;;;;11.32;9.85;;;;;;;5.46;70.84;99527.81;10307027;28;20141;-66
2021/01/01 16:58:00;;;;;;;13.52;12.13;;;;;;;5.39;70.67;99521.28;10302990;28;20280;-64
2021/01/01 17:03:02;;;;;;;12.90;11.52;;;;;;;5.46;70.76;99541.00;10299245;28;21638;-65
2021/01/01 17:08:03;;;;;;;12.60;11.30;;;;;;;5.43;70.35;99541.22;10301932;28;20046;-64
2021/01/01 17:13:15;;;;;;;11.95;10.57;;;;;;;4.93;72.20;99539.34;10301074;28;20065;-65
2021/01/01 17:18:17;;;;;;;13.93;12.43;;;;;;;5.19;72.21;99555.19;10318869;28;20079;-66
2021/01/01 17:23:19;;;;;;;14.98;12.18;;;;;;;5.25;71.79;99546.84;10316012;28;20058;-66
2021/01/01 17:28:21;;;;;;;15.40;12.90;;;;;;;5.36;71.79;99555.78;10311282;28;20073;-65
2021/01/01 17:33:24;;;;;;;15.23;13.00;;;;;;;5.35;71.12;99567.31;10318713;28;20050;-66
2021/01/01 17:38:26;;;;;;;14.80;12.63;;;;;;;5.35;70.72;99562.88;10320237;28;20151;-65
2021/01/01 17:43:27;;;;;;;16.63;13.30;;;;;;;5.22;71.61;99560.25;10320512;28;20454;-67
2021/01/01 17:48:28;;;;;;;21.08;18.75;;;;;;;5.25;71.25;99554.75;10320779;28;20050;-66
2021/01/01 17:53:31;;;;;;;23.58;19.83;;;;;;;5.38;71.33;99567.13;10318043;28;20149;-66
2021/01/01 17:58:32;;;;;;;17.13;14.80;;;;;;;5.31;71.39;99586.03;10317685;28;20046;-66
2021/01/01 18:03:33;;;;;;;16.08;13.10;;;;;;;5.29;71.26;99590.53;10311107;28;20100;-66
2021/01/01 18:08:35;;;;;;;18.50;16.58;;;;;;;5.32;71.02;99587.69;10317432;28;20065;-65
2021/01/01 18:13:36;;;;;;;22.35;17.95;;;;;;;5.31;71.19;99599.22;10304370;28;20139;-67
2021/01/01 18:18:38;;;;;;;17.33;14.50;;;;;;;5.25;71.34;99596.97;10317128;28;20060;-68
2021/01/01 18:23:52;;;;;;;16.80;13.85;;;;;;;5.37;70.93;99611.13;10312511;28;20049;-68
2021/01/01 18:28:53;;;;;;;15.55;13.82;;;;;;;5.33;70.98;99607.03;10312072;28;20058;-69
2021/01/01 18:33:56;;;;;;;17.08;14.70;;;;;;;5.37;71.38;99615.56;10319092;28;20051;-67
2021/01/01 18:38:58;;;;;;;15.68;13.82;;;;;;;5.31;71.06;99612.41;10309217;28;20053;-66
2021/01/01 18:44:06;;;;;;;18.02;14.23;;;;;;;5.18;71.08;99610.69;10313741;28;20049;-69
2021/01/01 18:49:09;;;;;;;16.70;14.00;;;;;;;5.20;71.28;99625.47;10319245;28;20053;-68
2021/01/01 18:54:12;;;;;;;17.13;14.85;;;;;;;5.17;71.68;99633.59;10317296;28;20450;-68
2021/01/01 18:59:29;;;;;;;18.85;15.48;;;;;;;5.15;71.37;99638.16;10316877;28;20053;-68
2021/01/01 19:04:41;;;;;;;17.77;14.65;;;;;;;5.11;71.97;99636.66;10314430;28;20050;-67
2021/01/01 19:09:44;;;;;;;21.35;16.83;;;;;;;5.14;71.54;99652.28;10300488;28;20042;-67
2021/01/01 19:14:51;;;;;;;18.73;16.77;;;;;;;5.18;71.86;99645.84;10308301;28;20058;-66
2021/01/01 19:19:58;;;;;;;18.85;14.43;;;;;;;5.21;71.89;99664.13;10311253;28;20374;-66
2021/01/01 19:25:07;;;;;;;18.23;14.63;;;;;;;5.18;71.60;99664.34;10318293;23;20061;-72
2021/01/01 19:30:29;;;;;;;18.00;15.07;;;;;;;5.19;71.74;99658.09;10308488;28;20058;-74
2021/01/01 19:35:36;;;;;;;20.52;16.60;;;;;;;5.29;71.43;99672.34;10300559;28;20069;-74
2021/01/01 19:40:40;;;;;;;20.25;16.67;;;;;;;5.24;71.40;99685.03;10266504;28;20101;-73
2021/01/01 19:46:12;;;;;;;18.17;15.10;;;;;;;5.20;71.54;99688.81;10283161;28;20066;-73
2021/01/01 19:51:24;;;;;;;17.25;14.00;;;;;;;5.26;71.53;99691.03;10291832;28;20062;-72
2021/01/01 19:56:30;;;;;;;20.00;15.93;;;;;;;5.30;71.31;99681.97;10262630;28;21046;-72
2021/01/01 20:01:43;;;;;;;19.10;16.10;;;;;;;5.36;71.20;99700.97;10298051;28;20039;-74
2021/01/01 20:06:54;;;;;;;24.70;18.48;;;;;;;5.39;71.33;99708.66;10305290;28;20042;-73
2021/01/01 20:12:14;;;;;;;20.40;16.75;;;;;;;5.31;71.32;99702.13;10280279;28;20731;-74
2021/01/01 20:17:18;;;;;;;20.50;16.35;;;;;;;5.31;71.22;99707.41;10277218;28;20058;-73
2021/01/01 20:22:23;;;;;;;20.08;16.45;;;;;;;5.52;70.87;99708.69;10282562;28;20127;-73
2021/01/01 20:27:30;;;;;;;20.00;15.65;;;;;;;5.51;70.22;99718.41;10275916;28;20050;-73
2021/01/01 20:32:38;;;;;;;22.27;17.10;;;;;;;5.49;69.98;99715.03;10269308;28;20051;-73
2021/01/01 20:37:51;;;;;;;19.83;15.75;;;;;;;5.54;70.26;99715.56;10264602;28;20046;-73
2021/01/01 20:43:28;;;;;;;21.15;16.50;;;;;;;5.53;69.63;99718.31;10260978;28;20051;-71
2021/01/01 20:59:23;;;;;;;22.08;17.75;;;;;;;5.54;70.01;99733.19;10242078;28;20275;-73
2021/01/01 21:04:34;;;;;;;21.38;17.33;;;;;;;5.45;70.22;99726.72;10264014;28;20506;-74
2021/01/01 21:09:43;;;;;;;21.92;17.63;;;;;;;5.39;70.39;99725.38;10272790;28;20050;-74
2021/01/01 21:14:50;;;;;;;22.45;17.30;;;;;;;5.45;70.69;99737.28;10273033;28;20050;-73
2021/01/01 21:20:26;;;;;;;20.67;16.90;;;;;;;5.42;70.58;99734.84;10305148;28;20413;-73
2021/01/01 21:25:42;;;;;;;19.67;16.20;;;;;;;5.37;70.94;99732.53;10301712;28;20057;-73
2021/01/01 21:30:46;;;;;;;21.88;17.55;;;;;;;5.33;71.03;99733.72;10264574;28;20051;-72
2021/01/01 21:36:12;;;;;;;21.58;17.27;;;;;;;5.28;71.45;99734.00;10271482;28;20057;-72
2021/01/01 21:41:40;;;;;;;24.88;18.15;;;;;;;5.27;71.76;99737.59;10274387;28;20058;-72
2021/01/01 21:47:12;;;;;;;22.77;18.13;;;;;;;5.24;71.43;99736.94;10238509;28;20053;-74
2021/01/01 21:52:20;;;;;;;21.00;17.55;;;;;;;5.25;71.23;99734.19;10304869;28;20051;-75
2021/01/01 21:57:23;;;;;;;24.42;17.75;;;;;;;5.21;71.48;99732.72;10272108;28;20598;-72
2021/01/01 22:02:33;;;;;;;23.67;18.17;;;;;;;5.20;71.77;99736.31;10269002;28;20678;-74
2021/01/01 22:07:39;;;;;;;25.33;19.33;;;;;;;5.17;72.14;99731.22;10270489;28;20493;-75
2021/01/01 22:12:41;;;;;;;23.30;18.58;;;;;;;5.19;71.66;99718.78;10268065;28;20054;-75
2021/01/01 22:17:42;;;;;;;23.23;18.27;;;;;;;5.14;71.62;99737.56;10279463;28;20061;-73
2021/01/01 22:22:44;;;;;;;21.05;17.23;;;;;;;5.06;71.98;99739.00;10289029;28;20516;-72
2021/01/01 22:27:46;;;;;;;25.80;19.67;;;;;;;5.09;72.20;99754.66;10296747;28;20047;-72
2021/01/01 22:32:47;;;;;;;23.45;18.63;;;;;;;5.07;71.51;99743.34;10294822;28;20059;-71
2021/01/01 22:37:48;;;;;;;23.70;17.58;;;;;;;5.07;71.52;99741.53;10320943;28;20051;-74
2021/01/01 22:42:50;;;;;;;22.20;17.17;;;;;;;5.04;71.48;99746.19;10305065;28;20039;-73
2021/01/01 22:47:51;;;;;;;19.88;15.90;;;;;;;5.03;71.74;99755.03;10330986;28;20074;-73
2021/01/01 22:52:52;;;;;;;22.60;19.08;;;;;;;4.92;72.08;99746.06;10301084;28;20057;-73
2021/01/01 22:57:58;;;;;;;25.25;22.55;;;;;;;4.98;72.14;99751.84;10286365;28;20054;-71
2021/01/01 23:03:04;;;;;;;31.42;27.73;;;;;;;4.93;71.86;99750.34;10262168;28;20074;-71
2021/01/01 23:08:06;;;;;;;23.50;21.00;;;;;;;4.91;72.61;99760.19;10264452;28;20050;-71
2021/01/01 23:13:09;;;;;;;22.30;17.85;;;;;;;4.70;72.99;99753.63;10284653;28;20054;-71
2021/01/01 23:18:24;;;;;;;24.63;18.33;;;;;;;4.81;73.32;99761.72;10259044;28;20297;-72
2021/01/01 23:23:28;;;;;;;23.83;19.10;;;;;;;4.80;72.74;99757.38;10260672;28;20054;-71
2021/01/01 23:28:48;;;;;;;23.23;17.85;;;;;;;4.74;73.09;99763.03;10265870;28;20409;-71
2021/01/01 23:34:18;;;;;;;25.33;18.77;;;;;;;4.65;73.06;99761.84;10255218;28;20067;-70
2021/01/01 23:39:20;;;;;;;23.00;17.67;;;;;;;4.60;73.34;99759.50;10269175;28;20066;-71
2021/01/01 23:44:49;;;;;;;25.58;19.20;;;;;;;4.63;73.51;99760.25;10269454;28;20047;-71
2021/01/01 23:49:51;;;;;;;21.38;17.08;;;;;;;4.57;72.82;99764.13;10266181;28;20058;-71
2021/01/01 23:54:58;;;;;;;23.55;18.63;;;;;;;4.50;73.28;99773.34;10279651;28;20493;-72
